createdAt,value
2018-01-14T00:02:03.857Z,13.62
2018-01-14T00:04:32.161Z,14.35
2018-01-14T00:07:00.522Z,14.60
2018-01-14T00:09:28.862Z,14.98
2018-01-14T00:11:57.195Z,14.48
2018-01-14T00:14:25.573Z,15.05
2018-01-14T00:16:53.886Z,15.52
2018-01-14T00:19:22.210Z,14.45
2018-01-14T00:21:50.540Z,14.52
2018-01-14T00:24:18.886Z,13.05
2018-01-14T00:26:47.240Z,15.93
2018-01-14T00:29:15.586Z,13.77
2018-01-14T00:31:43.978Z,13.38
2018-01-14T00:34:12.285Z,14.70
2018-01-14T00:36:40.672Z,11.75
2018-01-14T00:39:09.389Z,12.80
2018-01-14T00:41:37.749Z,14.25
2018-01-14T00:44:06.089Z,12.40
2018-01-14T00:46:34.424Z,14.87
2018-01-14T00:49:02.771Z,13.02
2018-01-14T00:51:31.114Z,14.10
2018-01-14T00:53:59.422Z,14.20
2018-01-14T00:56:27.737Z,15.48
2018-01-14T00:58:56.076Z,15.02
2018-01-14T01:01:24.442Z,14.48
2018-01-14T01:03:52.773Z,15.10
2018-01-14T01:06:21.145Z,15.73
2018-01-14T01:08:49.454Z,16.30
2018-01-14T01:11:17.793Z,15.82
2018-01-14T01:13:46.149Z,14.60
2018-01-14T01:16:14.523Z,14.20
2018-01-14T01:18:42.864Z,15.70
2018-01-14T01:21:11.224Z,16.42
2018-01-14T01:23:39.532Z,16.23
2018-01-14T01:26:07.861Z,14.55
2018-01-14T01:28:36.189Z,15.77
2018-01-14T01:31:04.533Z,14.85
2018-01-14T01:33:32.866Z,15.73
2018-01-14T01:36:01.203Z,16.40
2018-01-14T01:38:29.625Z,13.68
2018-01-14T01:40:57.946Z,14.23
2018-01-14T01:43:26.257Z,16.50
2018-01-14T01:45:54.573Z,14.07
2018-01-14T01:48:22.906Z,14.77
2018-01-14T01:50:52.238Z,14.82
2018-01-14T01:53:20.535Z,15.55
2018-01-14T01:55:49.144Z,14.57
2018-01-14T01:58:17.799Z,15.85
2018-01-14T02:00:46.107Z,15.32
2018-01-14T02:03:14.430Z,16.65
2018-01-14T02:05:42.724Z,14.15
2018-01-14T02:08:11.017Z,14.07
2018-01-14T02:10:39.324Z,12.55
2018-01-14T02:13:07.624Z,15.50
2018-01-14T02:15:35.929Z,14.75
2018-01-14T02:18:04.283Z,16.65
2018-01-14T02:20:32.670Z,16.02
2018-01-14T02:23:00.989Z,14.68
2018-01-14T02:25:29.338Z,14.65
2018-01-14T02:27:57.630Z,13.10
2018-01-14T02:30:25.961Z,15.15
2018-01-14T02:32:54.256Z,15.48
2018-01-14T02:35:23.572Z,14.70
2018-01-14T02:37:51.914Z,15.05
2018-01-14T02:40:20.214Z,14.20
2018-01-14T02:42:48.606Z,16.23
2018-01-14T02:45:16.920Z,14.27
2018-01-14T02:47:45.217Z,14.13
2018-01-14T02:50:13.592Z,15.77
2018-01-14T02:52:41.942Z,14.70
2018-01-14T02:55:10.246Z,14.70
2018-01-14T02:57:38.567Z,14.82
2018-01-14T03:00:07.014Z,14.68
2018-01-14T03:02:35.320Z,13.62
2018-01-14T03:05:03.632Z,15.88
2018-01-14T03:07:31.983Z,15.05
2018-01-14T03:10:00.279Z,14.63
2018-01-14T03:12:28.576Z,14.50
2018-01-14T03:14:56.899Z,14.70
2018-01-14T03:17:25.199Z,14.15
2018-01-14T03:19:53.505Z,15.02
2018-01-14T03:22:21.825Z,15.23
2018-01-14T03:24:50.120Z,14.55
2018-01-14T03:27:18.452Z,14.15
2018-01-14T03:29:46.870Z,15.13
2018-01-14T03:32:15.177Z,15.68
2018-01-14T03:34:43.616Z,14.75
2018-01-14T03:37:11.940Z,14.23
2018-01-14T03:39:40.249Z,14.73
2018-01-14T03:42:08.646Z,16.35
2018-01-14T03:44:37.912Z,14.45
2018-01-14T03:47:06.233Z,14.55
2018-01-14T03:49:34.545Z,14.15
2018-01-14T03:52:03.005Z,16.25
2018-01-14T03:54:33.542Z,14.85
2018-01-14T03:57:01.839Z,12.65
2018-01-14T03:59:30.170Z,13.23
2018-01-14T04:01:58.523Z,14.25
2018-01-14T04:04:26.851Z,14.87
2018-01-14T04:06:55.192Z,15.98
2018-01-14T04:09:23.514Z,16.25
2018-01-14T04:11:51.808Z,13.82
2018-01-14T04:14:20.165Z,14.70
2018-01-14T04:16:48.544Z,17.75
2018-01-14T04:19:23.199Z,13.90
2018-01-14T04:21:51.513Z,13.40
2018-01-14T04:24:19.909Z,14.75
2018-01-14T04:26:48.365Z,13.98
2018-01-14T04:29:16.659Z,14.27
2018-01-14T04:31:45.621Z,14.87
2018-01-14T04:34:13.984Z,15.38
2018-01-14T04:36:43.160Z,13.62
2018-01-14T04:39:12.503Z,15.27
2018-01-14T04:41:40.812Z,15.82
2018-01-14T04:44:09.113Z,14.02
2018-01-14T04:46:37.426Z,15.23
2018-01-14T04:49:05.733Z,14.25
2018-01-14T04:51:34.975Z,14.13
2018-01-14T04:54:03.949Z,14.23
2018-01-14T04:56:32.282Z,14.27
2018-01-14T04:59:00.591Z,14.32
2018-01-14T05:01:28.941Z,15.73
2018-01-14T05:03:57.225Z,13.75
2018-01-14T05:06:25.565Z,14.27
2018-01-14T05:08:53.888Z,15.75
2018-01-14T05:11:22.220Z,17.75
2018-01-14T05:13:50.536Z,14.23
2018-01-14T05:16:18.843Z,13.25
2018-01-14T05:18:48.059Z,15.32
2018-01-14T05:21:16.380Z,12.75
2018-01-14T05:23:44.665Z,18.33
2018-01-14T05:26:13.725Z,15.32
2018-01-14T05:28:42.013Z,14.73
2018-01-14T05:31:10.651Z,13.68
2018-01-14T05:33:38.939Z,13.70
2018-01-14T05:36:07.409Z,16.17
2018-01-14T05:38:35.754Z,18.60
2018-01-14T05:41:04.060Z,15.15
2018-01-14T05:43:32.358Z,13.80
2018-01-14T05:46:01.587Z,12.95
2018-01-14T05:48:29.881Z,14.00
2018-01-14T05:50:58.171Z,15.10
2018-01-14T05:53:26.482Z,14.00
2018-01-14T05:55:54.773Z,13.93
2018-01-14T05:58:23.090Z,18.50
2018-01-14T06:00:51.392Z,15.60
2018-01-14T06:03:19.700Z,14.68
2018-01-14T06:05:48.024Z,13.93
2018-01-14T06:08:16.410Z,14.40
2018-01-14T06:10:44.745Z,16.23
2018-01-14T06:13:13.055Z,15.60
2018-01-14T06:15:41.336Z,16.00
2018-01-14T06:18:09.769Z,16.40
2018-01-14T06:20:38.061Z,15.70
2018-01-14T06:23:06.358Z,16.58
2018-01-14T06:25:34.764Z,15.20
2018-01-14T06:28:03.035Z,14.10
2018-01-14T06:30:31.375Z,16.45
2018-01-14T06:32:59.678Z,15.48
2018-01-14T06:35:27.966Z,15.23
2018-01-14T06:37:56.287Z,17.17
2018-01-14T06:40:24.585Z,15.55
2018-01-14T06:42:52.909Z,16.45
2018-01-14T06:45:21.204Z,17.15
2018-01-14T06:47:49.505Z,17.55
2018-01-14T06:50:17.832Z,15.07
2018-01-14T06:52:46.128Z,14.32
2018-01-14T06:55:14.399Z,17.02
2018-01-14T06:57:42.733Z,16.08
2018-01-14T07:00:12.002Z,14.85
2018-01-14T07:02:40.326Z,16.75
2018-01-14T07:05:08.635Z,15.82
2018-01-14T07:07:37.842Z,15.65
2018-01-14T07:10:06.168Z,16.92
2018-01-14T07:12:35.314Z,17.10
2018-01-14T07:15:03.622Z,17.23
2018-01-14T07:17:31.932Z,18.65
2018-01-14T07:20:00.265Z,17.25
2018-01-14T07:22:28.612Z,18.05
2018-01-14T07:24:57.761Z,18.40
2018-01-14T07:27:26.058Z,18.50
2018-01-14T07:29:54.368Z,18.62
2018-01-14T07:32:22.989Z,18.05
2018-01-14T07:34:51.317Z,17.25
2018-01-14T07:37:19.652Z,17.87
2018-01-14T07:39:47.953Z,17.83
2018-01-14T07:42:17.660Z,16.70
2018-01-14T07:44:46.816Z,16.98
2018-01-14T07:47:15.388Z,18.00
2018-01-14T07:49:43.694Z,16.40
2018-01-14T07:52:12.040Z,16.98
2018-01-14T07:54:40.379Z,15.20
2018-01-14T07:57:09.703Z,17.67
2018-01-14T07:59:38.014Z,16.05
2018-01-14T08:02:06.338Z,15.88
2018-01-14T08:04:34.669Z,15.45
2018-01-14T08:07:02.978Z,14.60
2018-01-14T08:09:31.327Z,14.82
2018-01-14T08:11:59.612Z,15.10
2018-01-14T08:14:27.911Z,15.45
2018-01-14T08:16:56.251Z,15.00
2018-01-14T08:19:24.631Z,15.02
2018-01-14T08:21:53.693Z,18.58
2018-01-14T08:24:22.012Z,16.70
2018-01-14T08:26:50.302Z,15.73
2018-01-14T08:29:18.597Z,16.02
2018-01-14T08:31:46.913Z,16.33
2018-01-14T08:34:15.240Z,16.12
2018-01-14T08:36:43.525Z,18.77
2018-01-14T08:39:11.824Z,19.08
2018-01-14T08:41:40.145Z,18.17
2018-01-14T08:44:08.456Z,18.00
2018-01-14T08:46:36.782Z,18.73
2018-01-14T08:49:05.133Z,20.90
2018-01-14T08:51:33.432Z,18.65
2018-01-14T08:54:01.778Z,22.15
2018-01-14T08:56:30.088Z,21.42
2018-01-14T08:58:58.397Z,23.95
2018-01-14T09:14:50.565Z,22.62
2018-01-14T09:17:18.908Z,24.20
2018-01-14T09:19:47.212Z,21.62
2018-01-14T09:22:15.514Z,23.10
2018-01-14T09:24:43.812Z,23.95
2018-01-14T09:27:12.190Z,23.38
2018-01-14T09:29:40.526Z,22.40
2018-01-14T09:32:08.824Z,21.25
2018-01-14T09:34:38.099Z,23.62
2018-01-14T09:37:06.396Z,25.30
2018-01-14T09:39:34.781Z,22.73
2018-01-14T09:42:03.083Z,22.40
2018-01-14T09:44:31.452Z,24.10
2018-01-14T09:46:59.795Z,23.42
2018-01-14T09:49:28.092Z,23.52
2018-01-14T09:51:56.436Z,23.95
2018-01-14T09:54:24.758Z,21.92
2018-01-14T09:56:53.250Z,24.70
2018-01-14T09:59:21.594Z,22.73
2018-01-14T10:01:49.943Z,23.30
2018-01-14T10:04:19.184Z,21.02
2018-01-14T10:06:47.540Z,20.67
2018-01-14T10:09:15.954Z,19.65
2018-01-14T10:11:44.355Z,17.62
2018-01-14T10:14:12.682Z,19.25
2018-01-14T10:16:41.040Z,17.08
2018-01-14T10:19:09.334Z,21.30
2018-01-14T10:21:37.652Z,18.55
2018-01-14T10:24:05.985Z,17.50
2018-01-14T10:26:34.311Z,19.85
2018-01-14T10:29:03.541Z,17.83
2018-01-14T10:31:31.876Z,18.00
2018-01-14T10:34:00.183Z,16.10
2018-01-14T10:36:28.510Z,20.48
2018-01-14T10:38:57.094Z,17.77
2018-01-14T10:41:25.449Z,17.83
2018-01-14T10:43:53.868Z,17.48
2018-01-14T10:46:22.326Z,18.10
2018-01-14T10:48:50.639Z,18.50
2018-01-14T10:51:18.957Z,16.80
2018-01-14T10:53:47.308Z,18.23
2018-01-14T10:56:15.726Z,17.80
2018-01-14T10:58:44.475Z,17.12
2018-01-14T11:01:12.844Z,17.65
2018-01-14T11:03:41.279Z,15.23
2018-01-14T11:06:09.609Z,17.77
2018-01-14T11:08:38.099Z,16.90
2018-01-14T11:11:06.455Z,18.17
2018-01-14T11:13:34.819Z,14.93
2018-01-14T11:16:03.386Z,15.30
2018-01-14T11:18:31.788Z,15.55
2018-01-14T11:21:00.084Z,14.77
2018-01-14T11:23:28.413Z,14.40
2018-01-14T11:25:56.725Z,15.30
2018-01-14T11:28:36.591Z,16.15
2018-01-14T11:31:04.965Z,14.60
2018-01-14T11:33:33.303Z,13.32
2018-01-14T11:36:01.638Z,17.90
2018-01-14T11:38:29.953Z,15.00
2018-01-14T11:40:58.307Z,14.43
2018-01-14T11:43:26.687Z,15.90
2018-01-14T11:45:55.002Z,15.00
2018-01-14T11:48:23.480Z,17.05
2018-01-14T11:50:51.852Z,13.70
2018-01-14T11:53:20.181Z,16.27
2018-01-14T11:55:48.566Z,14.48
2018-01-14T11:58:16.900Z,13.75
2018-01-14T12:00:45.300Z,15.52
2018-01-14T12:03:13.640Z,14.95
2018-01-14T12:05:42.928Z,14.95
2018-01-14T12:08:11.287Z,15.50
2018-01-14T12:10:39.672Z,14.50
2018-01-14T12:13:07.992Z,16.08
2018-01-14T12:15:36.447Z,16.48
2018-01-14T12:18:04.790Z,13.88
2018-01-14T12:20:33.121Z,15.25
2018-01-14T12:23:01.405Z,15.85
2018-01-14T12:25:29.687Z,13.52
2018-01-14T12:27:58.672Z,14.60
2018-01-14T12:30:27.034Z,14.38
2018-01-14T12:33:03.134Z,14.90
2018-01-14T12:35:31.482Z,14.85
2018-01-14T12:37:59.803Z,14.40
2018-01-14T12:40:28.155Z,13.73
2018-01-14T12:42:56.452Z,12.52
2018-01-14T12:45:24.801Z,12.80
2018-01-14T12:47:53.126Z,13.82
2018-01-14T12:50:21.425Z,12.00
2018-01-14T12:52:50.352Z,11.25
2018-01-14T12:55:18.664Z,11.77
2018-01-14T12:57:46.963Z,10.45
2018-01-14T13:00:15.462Z,13.23
2018-01-14T13:02:43.824Z,13.40
2018-01-14T13:05:12.129Z,10.85
2018-01-14T13:07:40.439Z,11.00
2018-01-14T13:10:08.778Z,12.32
2018-01-14T13:12:37.178Z,12.18
2018-01-14T13:15:05.504Z,13.57
2018-01-14T13:17:33.885Z,11.68
2018-01-14T13:20:02.253Z,10.40
2018-01-14T13:22:30.562Z,13.10
2018-01-14T13:24:58.877Z,13.05
2018-01-14T13:27:28.050Z,12.65
2018-01-14T13:29:56.377Z,13.35
2018-01-14T13:32:24.736Z,13.32
2018-01-14T13:34:53.203Z,12.20
2018-01-14T13:37:21.558Z,14.02
2018-01-14T13:39:49.906Z,13.38
2018-01-14T13:42:18.227Z,13.60
2018-01-14T13:44:46.521Z,12.50
2018-01-14T13:47:14.898Z,13.65
2018-01-14T13:49:43.195Z,13.77
2018-01-14T13:52:12.307Z,12.75
2018-01-14T13:54:40.603Z,13.35
2018-01-14T13:57:08.948Z,17.70
2018-01-14T13:59:37.258Z,22.50
2018-01-14T14:02:05.610Z,19.33
2018-01-14T14:04:34.002Z,16.42
2018-01-14T14:07:02.333Z,21.50
2018-01-14T14:09:30.669Z,19.10
2018-01-14T14:11:59.025Z,16.17
2018-01-14T14:14:27.310Z,15.90
2018-01-14T14:16:55.640Z,17.23
2018-01-14T14:19:23.924Z,23.42
2018-01-14T14:21:52.225Z,14.55
2018-01-14T14:24:20.555Z,14.15
2018-01-14T14:26:48.848Z,18.08
2018-01-14T14:29:17.167Z,16.27
2018-01-14T14:31:45.509Z,23.15
2018-01-14T14:34:13.824Z,15.85
2018-01-14T14:36:42.159Z,14.45
2018-01-14T14:39:10.564Z,14.75
2018-01-14T14:41:39.060Z,12.85
2018-01-14T14:44:07.411Z,15.98
2018-01-14T14:46:35.768Z,16.27
2018-01-14T14:49:04.113Z,15.85
2018-01-14T14:51:32.461Z,14.43
2018-01-14T14:54:00.785Z,16.12
2018-01-14T14:56:29.091Z,16.48
2018-01-14T14:58:57.424Z,17.75
2018-01-14T15:01:25.795Z,19.58
2018-01-14T15:03:55.090Z,16.67
2018-01-14T15:06:23.487Z,20.58
2018-01-14T15:08:51.783Z,16.55
2018-01-14T15:11:20.120Z,19.08
2018-01-14T15:13:48.459Z,18.40
2018-01-14T15:16:16.753Z,19.33
2018-01-14T15:18:45.083Z,17.65
2018-01-14T15:21:13.412Z,19.52
2018-01-14T15:23:41.776Z,19.30
2018-01-14T15:26:10.859Z,18.77
2018-01-14T15:28:39.193Z,17.48
2018-01-14T15:31:08.465Z,15.25
2018-01-14T15:33:36.795Z,18.15
2018-01-14T15:36:05.146Z,16.67
2018-01-14T15:38:33.712Z,17.70
2018-01-14T15:41:02.033Z,18.58
2018-01-14T15:43:30.354Z,18.73
2018-01-14T15:45:59.493Z,18.05
2018-01-14T15:48:27.830Z,17.35
2018-01-14T15:50:56.165Z,17.12
2018-01-14T15:53:24.463Z,21.15
2018-01-14T15:55:52.812Z,17.17
2018-01-14T15:58:21.107Z,18.58
2018-01-14T16:00:49.537Z,20.27
2018-01-14T16:03:17.917Z,18.37
2018-01-14T16:05:46.364Z,18.75
2018-01-14T16:08:14.710Z,19.12
2018-01-14T16:10:43.667Z,22.05
2018-01-14T16:13:12.024Z,23.05
2018-01-14T16:15:40.399Z,21.98
2018-01-14T16:18:08.780Z,22.10
2018-01-14T16:20:37.118Z,22.40
2018-01-14T16:23:05.457Z,21.10
2018-01-14T16:25:33.803Z,19.33
2018-01-14T16:28:02.159Z,22.33
2018-01-14T16:30:30.500Z,21.08
2018-01-14T16:32:58.842Z,21.65
2018-01-14T16:35:27.176Z,17.40
2018-01-14T16:37:55.506Z,19.75
2018-01-14T16:40:23.864Z,22.25
2018-01-14T16:42:52.208Z,20.62
2018-01-14T16:45:20.529Z,22.35
2018-01-14T16:47:48.840Z,21.45
2018-01-14T16:50:17.189Z,20.58
2018-01-14T16:52:45.577Z,22.23
2018-01-14T16:55:13.966Z,22.55
2018-01-14T16:57:42.302Z,20.40
2018-01-14T17:00:10.668Z,21.33
2018-01-14T17:02:38.977Z,21.42
2018-01-14T17:05:07.327Z,22.77
2018-01-14T17:07:35.659Z,22.37
2018-01-14T17:10:04.058Z,23.50
2018-01-14T17:12:32.410Z,20.33
2018-01-14T17:15:00.818Z,21.90
2018-01-14T17:17:29.211Z,21.95
2018-01-14T17:19:57.562Z,23.80
2018-01-14T17:22:26.666Z,21.42
2018-01-14T17:24:54.965Z,23.15
2018-01-14T17:27:23.298Z,21.77
2018-01-14T17:29:51.711Z,21.35
2018-01-14T17:32:20.024Z,22.50
2018-01-14T17:34:48.464Z,23.27
2018-01-14T17:37:16.855Z,21.90
2018-01-14T17:39:45.269Z,25.15
2018-01-14T17:42:14.986Z,20.80
2018-01-14T17:44:43.286Z,20.80
2018-01-14T17:47:11.600Z,22.23
2018-01-14T17:49:39.962Z,21.73
2018-01-14T17:52:08.287Z,23.05
2018-01-14T17:54:37.006Z,21.95
2018-01-14T17:57:05.398Z,21.08
2018-01-14T17:59:33.681Z,22.50
2018-01-14T18:02:02.018Z,21.83
2018-01-14T18:04:30.411Z,22.33
2018-01-14T18:06:58.751Z,19.70
2018-01-14T18:09:27.060Z,23.62
2018-01-14T18:11:55.398Z,20.48
2018-01-14T18:14:23.768Z,19.85
2018-01-14T18:16:59.930Z,21.98
2018-01-14T18:19:28.520Z,22.98
2018-01-14T18:21:56.848Z,21.55
2018-01-14T18:24:25.175Z,21.05
2018-01-14T18:26:53.536Z,19.70
2018-01-14T18:29:21.885Z,21.10
2018-01-14T18:31:50.266Z,20.35
2018-01-14T18:34:18.655Z,21.60
2018-01-14T18:36:47.062Z,20.90
2018-01-14T18:39:15.405Z,19.08
2018-01-14T18:41:44.066Z,17.98
2018-01-14T18:44:12.542Z,17.42
2018-01-14T18:46:40.849Z,17.12
2018-01-14T18:49:09.231Z,18.67
2018-01-14T18:51:37.566Z,19.83
2018-01-14T18:54:05.898Z,19.45
2018-01-14T18:56:34.204Z,19.25
2018-01-14T18:59:02.566Z,17.98
2018-01-14T19:01:30.922Z,18.83
2018-01-14T19:03:59.232Z,18.10
2018-01-14T19:06:27.556Z,18.50
2018-01-14T19:08:55.934Z,18.08
2018-01-14T19:11:24.272Z,16.90
2018-01-14T19:13:56.417Z,19.33
2018-01-14T19:16:24.907Z,17.60
2018-01-14T19:18:53.259Z,16.95
2018-01-14T19:21:21.605Z,18.75
2018-01-14T19:23:49.967Z,18.33
2018-01-14T19:26:18.473Z,18.55
2018-01-14T19:28:46.817Z,17.35
2018-01-14T19:31:15.245Z,17.12
2018-01-14T19:33:43.828Z,16.90
2018-01-14T19:36:12.130Z,18.17
2018-01-14T19:38:40.500Z,19.17
2018-01-14T19:41:08.833Z,16.65
2018-01-14T19:43:37.156Z,19.08
2018-01-14T19:46:06.026Z,20.00
2018-01-14T19:48:34.384Z,20.50
2018-01-14T19:51:02.734Z,18.87
2018-01-14T19:53:31.150Z,19.73
2018-01-14T19:55:59.468Z,21.48
2018-01-14T19:58:27.895Z,19.35
2018-01-14T20:00:56.208Z,22.00
2018-01-14T20:03:24.520Z,23.40
2018-01-14T20:05:52.817Z,20.45
2018-01-14T20:08:21.137Z,20.65
2018-01-14T20:10:49.445Z,21.08
2018-01-14T20:13:17.984Z,21.70
2018-01-14T20:15:46.339Z,21.95
2018-01-14T20:18:15.872Z,22.02
2018-01-14T20:20:44.200Z,21.73
2018-01-14T20:23:12.529Z,18.98
2018-01-14T20:25:41.028Z,20.48
2018-01-14T20:28:09.389Z,18.50
2018-01-14T20:30:37.752Z,16.95
2018-01-14T20:33:06.515Z,15.02
2018-01-14T20:35:34.901Z,14.15
2018-01-14T20:38:03.290Z,19.02
2018-01-14T20:40:31.863Z,14.60
2018-01-14T20:43:00.256Z,15.80
2018-01-14T20:45:28.630Z,14.52
2018-01-14T20:47:56.947Z,15.32
2018-01-14T20:50:25.652Z,13.40
2018-01-14T20:52:54.019Z,14.82
2018-01-14T20:55:22.390Z,15.90
2018-01-14T20:57:50.798Z,16.83
2018-01-14T21:00:19.154Z,17.20
2018-01-14T21:02:47.506Z,16.00
2018-01-14T21:05:15.898Z,18.35
2018-01-14T21:07:44.375Z,15.93
2018-01-14T21:10:12.733Z,15.00
2018-01-14T21:12:41.051Z,17.55
2018-01-14T21:15:09.480Z,14.43
2018-01-14T21:17:37.802Z,17.73
2018-01-14T21:20:06.126Z,15.32
2018-01-14T21:22:34.430Z,16.85
2018-01-14T21:25:02.823Z,16.23
2018-01-14T21:27:32.398Z,16.40
2018-01-14T21:30:00.777Z,17.33
2018-01-14T21:32:29.211Z,15.20
2018-01-14T21:34:57.538Z,17.42
2018-01-14T21:37:25.872Z,14.87
2018-01-14T21:39:54.711Z,14.35
2018-01-14T21:42:23.109Z,16.62
2018-01-14T21:44:51.647Z,16.90
2018-01-14T21:47:20.157Z,16.17
2018-01-14T21:49:48.542Z,17.77
2018-01-14T21:52:17.065Z,17.98
2018-01-14T21:54:45.423Z,16.98
2018-01-14T21:57:13.833Z,17.30
2018-01-14T21:59:42.294Z,15.95
2018-01-14T22:02:10.621Z,17.55
2018-01-14T22:04:38.976Z,16.35
2018-01-14T22:07:07.271Z,19.00
2018-01-14T22:09:35.586Z,17.60
2018-01-14T22:12:03.988Z,16.10
2018-01-14T22:14:32.306Z,19.55
2018-01-14T22:17:00.608Z,17.65
2018-01-14T22:19:28.943Z,17.85
2018-01-14T22:21:57.254Z,18.70
2018-01-14T22:24:25.562Z,20.20
2018-01-14T22:26:53.965Z,17.05
2018-01-14T22:29:22.311Z,20.33
2018-01-14T22:31:50.630Z,17.42
2018-01-14T22:34:19.132Z,18.27
2018-01-14T22:36:47.487Z,17.95
2018-01-14T22:39:15.834Z,16.35
2018-01-14T22:41:44.153Z,18.10
2018-01-14T22:44:12.444Z,16.02
2018-01-14T22:46:40.731Z,17.90
2018-01-14T22:49:09.017Z,17.20
2018-01-14T22:51:38.158Z,16.62
2018-01-14T22:54:06.457Z,17.80
2018-01-14T22:56:34.752Z,17.37
2018-01-14T22:59:03.140Z,16.98
2018-01-14T23:01:31.528Z,15.38
2018-01-14T23:03:59.872Z,16.27
2018-01-14T23:06:28.490Z,15.23
2018-01-14T23:08:56.964Z,15.95
2018-01-14T23:11:25.282Z,15.93
2018-01-14T23:13:53.584Z,16.58
2018-01-14T23:16:21.988Z,15.50
2018-01-14T23:18:50.304Z,17.17
2018-01-14T23:21:18.621Z,18.10
2018-01-14T23:23:47.008Z,16.83
2018-01-14T23:26:15.355Z,16.65
2018-01-14T23:28:43.690Z,16.55
2018-01-14T23:31:12.008Z,15.60
2018-01-14T23:33:40.449Z,18.00
2018-01-14T23:36:08.786Z,17.00
2018-01-14T23:38:37.069Z,17.90
2018-01-14T23:41:05.398Z,18.02
2018-01-14T23:43:33.788Z,17.02
2018-01-14T23:46:02.248Z,17.37
2018-01-14T23:48:30.569Z,18.50
2018-01-14T23:50:58.916Z,17.77
2018-01-14T23:53:27.248Z,17.50
2018-01-14T23:55:55.561Z,17.17
2018-01-14T23:58:23.877Z,17.55
